Time;durP1;ratioP1;P1;durP2;ratioP2;P2;SDS_P1;SDS_P2;PMS_P1;PMS_P2;Temp;Humidity;BMP_temperature;BMP_pressure;BME280_temperature;BME280_humidity;BME280_pressure;Samples;Min_cycle;Max_cycle;Signal;HPM_P1;HPM_P2
2022/08/22 00:02:44;;;;;;;14.23;6.45;;;14.70;99.90;;;;;;5043293;28;20051;-79
2022/08/22 00:05:19;;;;;;;;;;;14.70;99.90;;;;;;5058269;28;20104;-78
2022/08/22 00:07:54;;;;;;;16.02;6.57;;;14.70;99.90;;;;;;5057854;28;19951;-79
2022/08/22 00:10:49;;;;;;;11.27;6.55;;;14.80;99.90;;;;;;5046678;28;20022;-79
2022/08/22 00:13:30;;;;;;;13.77;7.00;;;14.80;99.90;;;;;;5056737;28;20010;-79
2022/08/22 00:16:11;;;;;;;11.45;7.32;;;14.80;99.90;;;;;;5057607;28;20017;-78
2022/08/22 00:18:43;;;;;;;12.65;7.78;;;14.80;1.00;;;;;;5057670;28;20077;-79
2022/08/22 00:21:38;;;;;;;12.68;7.28;;;14.70;99.90;;;;;;5057431;28;20033;-79
2022/08/22 00:24:40;;;;;;;11.85;7.22;;;14.70;1.00;;;;;;5048728;28;20033;-79
2022/08/22 00:27:15;;;;;;;14.13;7.32;;;14.60;1.00;;;;;;5057452;28;20084;-79
2022/08/22 00:29:44;;;;;;;12.20;7.43;;;14.50;99.90;;;;;;5045661;28;20021;-78
2022/08/22 00:32:17;;;;;;;10.60;7.47;;;14.50;1.00;;;;;;5051925;28;20020;-79
2022/08/22 00:34:51;;;;;;;15.88;7.47;;;14.50;99.90;;;;;;5050876;28;20040;-78
2022/08/22 00:37:38;;;;;;;14.93;7.90;;;14.40;99.90;;;;;;5044864;28;20049;-79
2022/08/22 00:40:27;;;;;;;14.70;8.98;;;14.40;99.90;;;;;;5057227;28;20022;-79
2022/08/22 00:43:12;;;;;;;17.45;7.80;;;14.40;1.00;;;;;;5000894;28;20038;-79
2022/08/22 00:46:05;;;;;;;12.73;8.20;;;14.30;1.00;;;;;;5047176;28;20042;-79
2022/08/22 00:48:40;;;;;;;14.00;8.32;;;14.20;1.00;;;;;;5057280;28;20302;-79
2022/08/22 00:51:42;;;;;;;17.02;9.10;;;14.10;1.00;;;;;;5057175;28;20104;-79
2022/08/22 00:54:39;;;;;;;17.27;9.18;;;14.00;1.00;;;;;;5056952;28;20020;-79
2022/08/22 00:57:34;;;;;;;15.43;9.20;;;13.90;1.00;;;;;;5047953;28;20021;-79
2022/08/22 01:00:13;;;;;;;14.30;8.57;;;14.00;1.00;;;;;;5044861;28;20030;-79
2022/08/22 01:03:18;;;;;;;13.82;9.40;;;13.80;1.00;;;;;;5057073;28;20080;-79
2022/08/22 01:06:03;;;;;;;16.02;8.77;;;13.80;1.00;;;;;;5011649;28;20045;-78
2022/08/22 01:08:31;;;;;;;14.10;8.90;;;13.80;1.00;;;;;;5057072;28;20056;-79
2022/08/22 01:11:10;;;;;;;15.50;9.18;;;13.80;1.00;;;;;;5056258;28;20037;-78
2022/08/22 01:13:36;;;;;;;15.80;9.15;;;13.70;1.00;;;;;;5057047;28;20073;-79
2022/08/22 01:16:26;;;;;;;17.20;8.30;;;13.60;1.00;;;;;;5057139;28;20037;-79
2022/08/22 01:19:10;;;;;;;17.25;8.35;;;13.70;1.00;;;;;;5056744;28;20025;-79
2022/08/22 01:21:48;;;;;;;15.32;8.45;;;13.70;1.00;;;;;;5056936;28;20060;-79
2022/08/22 01:25:16;;;;;;;16.83;8.52;;;13.50;1.00;;;;;;5044576;28;20013;-78
2022/08/22 01:27:44;;;;;;;13.98;8.55;;;13.50;1.00;;;;;;5056647;28;20093;-79
2022/08/22 01:30:38;;;;;;;14.57;7.63;;;13.40;1.00;;;;;;5056724;28;20017;-79
2022/08/22 01:33:25;;;;;;;16.83;8.50;;;13.40;1.00;;;;;;5056886;28;20021;-79
2022/08/22 01:36:02;;;;;;;12.60;7.63;;;13.40;1.00;;;;;;5056666;28;20025;-78
2022/08/22 01:38:52;;;;;;;13.32;7.97;;;13.30;1.00;;;;;;5056581;28;20045;-78
2022/08/22 01:41:59;;;;;;;11.48;7.40;;;13.20;1.00;;;;;;5056795;28;21094;-78
2022/08/22 01:44:31;;;;;;;11.65;8.25;;;13.10;1.00;;;;;;5046316;28;20016;-79
2022/08/22 01:47:10;;;;;;;13.57;7.72;;;13.20;1.00;;;;;;5056758;28;20021;-79
2022/08/22 01:49:46;;;;;;;12.18;7.63;;;13.20;1.00;;;;;;5056619;28;20024;-79
2022/08/22 01:52:19;;;;;;;20.20;9.07;;;13.10;1.00;;;;;;5056896;28;20069;-79
2022/08/22 01:55:01;;;;;;;13.25;8.52;;;13.00;1.00;;;;;;5056754;28;20028;-79
2022/08/22 01:57:27;;;;;;;15.27;9.40;;;13.20;1.00;;;;;;5056837;28;20032;-79
2022/08/22 02:00:06;;;;;;;16.77;8.48;;;13.00;1.00;;;;;;5056280;28;20077;-79
2022/08/22 02:02:41;;;;;;;18.90;9.18;;;13.00;1.00;;;;;;5056598;28;20018;-79
2022/08/22 02:05:15;;;;;;;14.13;8.95;;;13.00;1.00;;;;;;5056419;28;20017;-78
2022/08/22 02:08:12;;;;;;;15.63;8.48;;;13.20;6.20;;;;;;5055446;28;20045;-79
2022/08/22 02:10:44;;;;;;;11.40;7.90;;;13.20;46.60;;;;;;5056349;28;20014;-79
2022/08/22 02:13:12;;;;;;;15.05;7.82;;;13.20;76.40;;;;;;5056372;28;20018;-79
2022/08/22 02:15:38;;;;;;;12.85;8.63;;;13.10;77.30;;;;;;5056076;28;20048;-79
2022/08/22 02:18:04;;;;;;;18.92;9.98;;;13.10;90.10;;;;;;5056474;28;20029;-79
2022/08/22 02:20:57;;;;;;;14.63;9.65;;;13.30;99.90;;;;;;5056304;28;20040;-79
2022/08/22 02:23:48;;;;;;;18.52;9.20;;;13.40;99.90;;;;;;5040984;28;20014;-79
2022/08/22 02:26:22;;;;;;;11.93;8.02;;;13.10;99.90;;;;;;5059824;28;20019;-79
2022/08/22 02:29:20;;;;;;;15.25;8.75;;;12.90;99.90;;;;;;5060018;28;20020;-79
2022/08/22 02:31:54;;;;;;;10.82;8.10;;;12.90;99.90;;;;;;5038451;28;20017;-78
2022/08/22 02:34:32;;;;;;;12.00;7.25;;;12.80;99.90;;;;;;5059935;28;20018;-79
2022/08/22 02:37:09;;;;;;;12.02;7.63;;;12.70;99.90;;;;;;5059451;28;20049;-79
2022/08/22 02:39:42;;;;;;;16.05;8.30;;;12.80;99.90;;;;;;5059622;28;20029;-78
2022/08/22 02:42:32;;;;;;;13.13;7.72;;;12.80;99.90;;;;;;5059581;28;20098;-79
2022/08/22 02:45:18;;;;;;;13.93;7.60;;;12.70;99.90;;;;;;5059483;28;20014;-79
2022/08/22 02:47:58;;;;;;;14.38;7.65;;;12.70;99.90;;;;;;5059618;28;20025;-79
2022/08/22 02:50:36;;;;;;;12.20;6.55;;;12.70;99.90;;;;;;5059410;28;20025;-79
2022/08/22 02:53:46;;;;;;;12.18;6.78;;;12.60;99.90;;;;;;5059390;28;21060;-79
2022/08/22 02:56:26;;;;;;;12.93;7.55;;;12.60;99.90;;;;;;5034296;28;20049;-79
2022/08/22 02:59:10;;;;;;;14.00;7.80;;;12.90;99.90;;;;;;5047959;28;20021;-79
2022/08/22 03:01:40;;;;;;;14.30;8.05;;;12.70;99.90;;;;;;5059178;28;20029;-79
2022/08/22 03:04:26;;;;;;;11.23;7.25;;;12.60;99.90;;;;;;5059450;28;20018;-79
2022/08/22 03:07:11;;;;;;;14.52;8.10;;;12.50;99.90;;;;;;5047404;28;20070;-79
2022/08/22 03:09:42;;;;;;;12.32;7.60;;;12.50;97.80;;;;;;5059244;28;20028;-79
2022/08/22 03:12:31;;;;;;;13.63;8.07;;;12.60;99.90;;;;;;5059024;28;20086;-79
2022/08/22 03:15:20;;;;;;;19.67;8.35;;;12.60;99.90;;;;;;5059156;28;20044;-79
2022/08/22 03:17:52;;;;;;;12.65;7.60;;;12.70;99.90;;;;;;5059040;28;20073;-79
2022/08/22 03:20:44;;;;;;;16.73;8.00;;;12.50;99.90;;;;;;5059171;28;20037;-79
2022/08/22 03:23:10;;;;;;;15.10;7.78;;;12.70;99.90;;;;;;5059186;28;20020;-78
2022/08/22 03:26:14;;;;;;;16.10;7.60;;;12.80;99.90;;;;;;5058856;28;21107;-79
2022/08/22 03:28:50;;;;;;;12.30;7.45;;;13.00;99.90;;;;;;5009008;28;20025;-78
2022/08/22 03:31:27;;;;;;;14.18;7.38;;;12.90;99.90;;;;;;5046524;28;20002;-78
2022/08/22 03:34:15;;;;;;;13.60;7.22;;;12.80;99.90;;;;;;5057986;28;20084;-79
2022/08/22 03:37:06;;;;;;;15.48;7.60;;;12.80;99.90;;;;;;5058327;28;20052;-79
2022/08/22 03:39:50;;;;;;;11.95;7.07;;;12.90;99.90;;;;;;5041320;28;20061;-78
2022/08/22 03:42:27;;;;;;;11.82;6.07;;;12.90;99.90;;;;;;5054096;28;20041;-79
2022/08/22 03:45:12;;;;;;;12.32;6.18;;;12.80;99.90;;;;;;5051924;28;20017;-79
2022/08/22 03:48:06;;;;;;;9.70;6.40;;;12.60;99.90;;;;;;5047745;28;20009;-79
2022/08/22 03:50:47;;;;;;;12.98;6.78;;;12.60;99.90;;;;;;5058427;28;20030;-79
2022/08/22 03:53:33;;;;;;;14.07;7.05;;;12.60;99.90;;;;;;5058480;28;20029;-79
2022/08/22 03:56:20;;;;;;;11.25;6.85;;;12.50;99.90;;;;;;5058260;28;20013;-78
2022/08/22 03:59:07;;;;;;;13.75;6.47;;;12.50;99.90;;;;;;5046083;28;20032;-79
2022/08/22 04:01:42;;;;;;;12.10;6.28;;;12.50;99.90;;;;;;5058185;28;20021;-79
2022/08/22 04:04:08;;;;;;;13.02;5.97;;;12.60;99.90;;;;;;5058361;28;20012;-79
2022/08/22 04:06:45;;;;;;;9.25;5.63;;;12.60;99.90;;;;;;5058148;28;20001;-79
2022/08/22 04:09:55;;;;;;;9.57;5.50;;;12.50;99.90;;;;;;5058029;28;20017;-79
2022/08/22 04:12:51;;;;;;;7.90;5.47;;;12.40;99.90;;;;;;5050169;28;20037;-79
2022/08/22 04:15:45;;;;;;;12.05;5.43;;;12.40;99.90;;;;;;5048928;28;20089;-78
2022/08/22 04:18:22;;;;;;;11.43;5.50;;;12.40;99.90;;;;;;5057977;28;20024;-79
2022/08/22 04:21:26;;;;;;;10.52;5.93;;;12.30;99.90;;;;;;5057670;28;20089;-79
2022/08/22 04:24:10;;;;;;;10.32;6.07;;;12.40;99.90;;;;;;5057849;28;20035;-78
2022/08/22 04:26:56;;;;;;;12.00;6.38;;;12.30;99.90;;;;;;5057658;28;20052;-78
2022/08/22 04:29:37;;;;;;;9.18;5.88;;;12.20;99.90;;;;;;5057470;28;20022;-79
2022/08/22 04:32:21;;;;;;;8.98;5.38;;;12.30;99.90;;;;;;5057797;28;20012;-78
2022/08/22 04:34:49;;;;;;;11.10;5.35;;;12.20;99.90;;;;;;5057491;28;20029;-79
2022/08/22 04:37:27;;;;;;;9.38;4.72;;;12.30;99.90;;;;;;5057177;28;20038;-79
2022/08/22 04:40:02;;;;;;;6.65;4.75;;;12.30;99.90;;;;;;5057447;28;20032;-79
2022/08/22 04:42:33;;;;;;;9.80;4.82;;;12.20;99.90;;;;;;5057334;28;20048;-79
2022/08/22 04:45:11;;;;;;;7.90;4.50;;;12.20;99.90;;;;;;5056951;28;20048;-79
2022/08/22 04:47:57;;;;;;;7.30;4.35;;;12.10;99.90;;;;;;5057497;28;20033;-79
2022/08/22 04:50:44;;;;;;;5.72;4.05;;;12.10;99.90;;;;;;5057575;28;20044;-79
2022/08/22 04:54:05;;;;;;;6.88;4.45;;;12.10;99.90;;;;;;5057441;28;20101;-79
2022/08/22 04:56:56;;;;;;;7.07;5.10;;;12.10;99.90;;;;;;5019447;28;20026;-79
2022/08/22 04:59:23;;;;;;;7.80;4.68;;;12.20;99.90;;;;;;5058081;28;20041;-79
2022/08/22 05:01:54;;;;;;;25.75;5.57;;;12.30;99.90;;;;;;5057717;28;20013;-78
2022/08/22 05:04:24;;;;;;;8.93;5.00;;;12.50;99.90;;;;;;5057838;28;20024;-78
2022/08/22 05:06:56;;;;;;;9.38;5.25;;;12.60;99.90;;;;;;5045169;28;20052;-79
2022/08/22 05:09:28;;;;;;;5.85;4.63;;;12.60;99.90;;;;;;5056651;28;20045;-78
2022/08/22 05:12:04;;;;;;;4.82;3.80;;;12.60;99.90;;;;;;5056785;28;20013;-78
2022/08/22 05:14:38;;;;;;;6.32;4.10;;;12.70;99.90;;;;;;5056620;28;20017;-79
2022/08/22 05:17:09;;;;;;;9.30;4.47;;;12.80;99.90;;;;;;5056681;28;20006;-79
2022/08/22 05:19:39;;;;;;;5.50;4.00;;;12.90;99.90;;;;;;5056647;28;20033;-79
2022/08/22 05:22:09;;;;;;;5.97;3.95;;;13.00;99.90;;;;;;5056767;28;20032;-78
2022/08/22 05:24:45;;;;;;;11.18;4.38;;;13.00;99.90;;;;;;5043266;28;20026;-78
2022/08/22 05:27:24;;;;;;;13.15;3.92;;;13.00;99.90;;;;;;5056630;28;20036;-78
2022/08/22 05:29:55;;;;;;;13.73;4.03;;;13.10;99.90;;;;;;5056630;28;20089;-78
2022/08/22 05:32:28;;;;;;;29.67;3.88;;;13.20;99.90;;;;;;5056591;28;20021;-79
2022/08/22 05:34:59;;;;;;;19.15;4.28;;;13.40;99.90;;;;;;5056492;28;20029;-78
2022/08/22 05:37:43;;;;;;;23.38;4.40;;;13.80;99.90;;;;;;5056159;28;20040;-79
2022/08/22 05:40:18;;;;;;;5.13;4.22;;;14.10;99.90;;;;;;5056332;28;20053;-79
2022/08/22 05:42:44;;;;;;;4.57;4.05;;;14.20;85.70;;;;;;5056639;28;20081;-79
2022/08/22 05:45:12;;;;;;;9.02;3.35;;;15.80;39.80;;;;;;5056571;28;20018;-79
2022/08/22 05:47:40;;;;;;;19.77;3.65;;;16.10;99.90;;;;;;5056259;28;20020;-79
2022/08/22 05:50:36;;;;;;;19.27;3.88;;;15.30;99.90;;;;;;5056492;28;20021;-79
2022/08/22 05:53:16;;;;;;;8.82;4.07;;;14.70;99.90;;;;;;5056444;28;20052;-79
2022/08/22 05:56:03;;;;;;;8.95;4.03;;;14.60;99.90;;;;;;5056359;28;20025;-79
2022/08/22 05:58:38;;;;;;;8.80;3.60;;;14.70;99.90;;;;;;5059960;28;20040;-78
2022/08/22 06:01:19;;;;;;;7.95;3.90;;;14.70;99.90;;;;;;5060102;28;20048;-79
2022/08/22 06:04:05;;;;;;;3.88;3.30;;;14.60;99.90;;;;;;5048696;28;20009;-78
2022/08/22 06:06:38;;;;;;;3.85;3.25;;;14.60;99.90;;;;;;5059860;28;20028;-79
2022/08/22 06:09:17;;;;;;;3.35;3.05;;;14.50;1.00;;;;;;5060016;28;20010;-79
2022/08/22 06:12:00;;;;;;;3.70;3.17;;;14.50;1.00;;;;;;5047614;28;20037;-79
2022/08/22 06:14:42;;;;;;;2.80;2.60;;;14.40;1.00;;;;;;5046709;28;20081;-79
2022/08/22 06:17:19;;;;;;;3.35;2.30;;;14.30;1.00;;;;;;5059914;28;20014;-79
2022/08/22 06:19:47;;;;;;;2.85;2.60;;;14.40;1.00;;;;;;5059578;28;20029;-79
2022/08/22 06:22:28;;;;;;;4.15;2.65;;;14.50;1.00;;;;;;5059680;28;20041;-79
2022/08/22 06:25:04;;;;;;;2.75;2.55;;;14.50;1.00;;;;;;5059743;28;20044;-78
2022/08/22 06:27:31;;;;;;;2.78;2.58;;;14.70;1.00;;;;;;5059579;28;20044;-78
2022/08/22 06:29:59;;;;;;;3.38;2.85;;;14.90;1.00;;;;;;5059663;28;20014;-78
2022/08/22 06:32:31;;;;;;;2.88;2.63;;;15.20;99.90;;;;;;5059542;28;20049;-79
2022/08/22 06:35:06;;;;;;;3.22;2.60;;;15.30;99.90;;;;;;5059644;28;20025;-79
2022/08/22 06:37:38;;;;;;;3.35;2.60;;;15.60;99.90;;;;;;5059125;28;20041;-79
2022/08/22 06:40:06;;;;;;;3.55;2.58;;;16.00;99.90;;;;;;5059510;28;20036;-79
2022/08/22 06:42:40;;;;;;;2.67;2.47;;;18.20;99.90;;;;;;5046393;28;20010;-78
2022/08/22 06:45:08;;;;;;;4.30;2.50;;;18.10;99.90;;;;;;5059220;28;20035;-79
2022/08/22 06:48:05;;;;;;;3.38;2.28;;;18.80;99.90;;;;;;5059407;28;20010;-79
2022/08/22 06:50:40;;;;;;;3.00;2.67;;;24.90;99.90;;;;;;5025803;28;20114;-79
2022/08/22 06:53:15;;;;;;;3.95;2.60;;;26.50;99.90;;;;;;5059274;28;20022;-78
2022/08/22 06:55:47;;;;;;;4.18;2.80;;;28.30;99.90;;;;;;5059351;28;20044;-79
2022/08/22 06:58:19;;;;;;;3.70;2.33;;;31.30;99.90;;;;;;5059346;28;20009;-79
2022/08/22 07:00:46;;;;;;;5.18;3.33;;;34.00;99.90;;;;;;5059127;28;20037;-79
2022/08/22 07:03:23;;;;;;;4.22;3.65;;;34.40;99.90;;;;;;5058937;28;20033;-79
2022/08/22 07:05:53;;;;;;;4.78;3.40;;;36.50;99.90;;;;;;5058969;28;20014;-79
2022/08/22 07:08:21;;;;;;;7.03;3.25;;;34.80;99.90;;;;;;5058106;28;20037;-79
2022/08/22 07:10:57;;;;;;;5.30;3.00;;;36.60;99.90;;;;;;5058981;28;20025;-79
2022/08/22 07:13:24;;;;;;;5.60;3.13;;;33.00;99.90;;;;;;5058837;28;20006;-79
2022/08/22 07:15:54;;;;;;;7.15;3.17;;;35.10;99.90;;;;;;5058450;28;20109;-79
2022/08/22 07:18:24;;;;;;;7.22;3.08;;;36.00;99.90;;;;;;5039241;28;20022;-79
2022/08/22 07:20:54;;;;;;;7.30;3.65;;;32.00;99.90;;;;;;5053875;28;20060;-79
2022/08/22 07:23:25;;;;;;;;;;;31.80;99.90;;;;;;5059231;28;20018;-79
2022/08/22 07:25:54;;;;;;;5.32;3.05;;;34.20;99.90;;;;;;5058540;28;19916;-79
2022/08/22 07:28:34;;;;;;;6.47;2.95;;;34.80;99.90;;;;;;5058675;28;20010;-79
2022/08/22 07:31:10;;;;;;;7.97;2.78;;;37.90;99.90;;;;;;5058466;28;20009;-80
2022/08/22 07:33:43;;;;;;;6.45;3.05;;;38.50;99.90;;;;;;5058610;28;20045;-80
2022/08/22 07:36:28;;;;;;;7.40;3.22;;;38.20;99.90;;;;;;5058555;28;20013;-80
2022/08/22 07:39:12;;;;;;;5.72;3.00;;;37.80;99.90;;;;;;5058275;28;20056;-80
2022/08/22 07:42:05;;;;;;;7.25;3.13;;;36.20;99.90;;;;;;5058275;28;20029;-80
2022/08/22 07:44:50;;;;;;;7.30;3.40;;;33.30;99.90;;;;;;5052216;28;20026;-80
2022/08/22 07:47:21;;;;;;;8.20;3.53;;;34.30;99.90;;;;;;5058378;28;20028;-80
2022/08/22 07:49:52;;;;;;;6.40;3.33;;;37.00;99.90;;;;;;5058160;28;20055;-80
2022/08/22 07:52:20;;;;;;;5.22;3.00;;;35.60;99.90;;;;;;5046626;28;20020;-80
2022/08/22 07:54:54;;;;;;;8.43;3.17;;;38.30;99.90;;;;;;5057983;28;20040;-80
2022/08/22 07:57:35;;;;;;;8.68;3.40;;;40.10;99.90;;;;;;5058171;28;20014;-80
2022/08/22 08:00:10;;;;;;;6.60;3.55;;;39.60;99.90;;;;;;5057854;28;20022;-80
2022/08/22 08:02:37;;;;;;;5.60;3.35;;;37.70;99.90;;;;;;5057841;28;20029;-80
2022/08/22 08:05:04;;;;;;;7.90;3.40;;;39.40;99.60;;;;;;5057762;28;20023;-80
2022/08/22 08:07:31;;;;;;;6.10;3.20;;;39.60;96.90;;;;;;5058133;28;20017;-80
2022/08/22 08:10:08;;;;;;;5.63;2.78;;;38.10;97.20;;;;;;5057580;28;20037;-80
2022/08/22 08:12:38;;;;;;;5.15;2.47;;;36.60;96.60;;;;;;5057403;28;20024;-80
2022/08/22 08:15:08;;;;;;;7.63;3.20;;;31.50;97.30;;;;;;5057630;28;20029;-79
2022/08/22 08:17:36;;;;;;;5.70;3.08;;;30.80;99.90;;;;;;5057591;28;20040;-80
2022/08/22 08:20:10;;;;;;;7.35;3.10;;;35.70;99.90;;;;;;5057460;28;20041;-80
2022/08/22 08:22:37;;;;;;;7.30;3.10;;;36.60;99.90;;;;;;5057820;28;20052;-80
2022/08/22 08:25:05;;;;;;;7.30;2.65;;;35.00;97.80;;;;;;5057646;28;20041;-79
2022/08/22 08:30:42;;;;;;;6.90;2.70;;;35.90;98.00;;;;;;5044729;28;20078;-80
2022/08/22 08:33:16;;;;;;;6.03;2.30;;;35.70;98.60;;;;;;5057805;28;20040;-80
2022/08/22 08:35:50;;;;;;;6.07;2.20;;;38.10;96.20;;;;;;5057393;28;20041;-80
2022/08/22 08:38:22;;;;;;;5.30;2.00;;;38.30;96.00;;;;;;5057127;28;20041;-80
2022/08/22 08:41:12;;;;;;;8.73;2.33;;;38.80;94.30;;;;;;5057219;28;20085;-80
2022/08/22 08:43:59;;;;;;;6.50;2.40;;;39.00;92.20;;;;;;5057339;28;20045;-80
2022/08/22 08:47:08;;;;;;;6.03;2.53;;;34.80;92.10;;;;;;5057379;28;20026;-80
2022/08/22 08:49:45;;;;;;;4.85;1.85;;;34.70;94.60;;;;;;5049981;28;20020;-80
2022/08/22 08:52:26;;;;;;;5.15;2.30;;;35.80;92.20;;;;;;5044969;28;20163;-80
2022/08/22 08:55:19;;;;;;;9.02;2.75;;;35.40;93.10;;;;;;5057572;28;20014;-80
2022/08/22 08:58:06;;;;;;;7.75;3.05;;;36.00;93.70;;;;;;5057448;28;20048;-79
2022/08/22 09:00:41;;;;;;;8.88;3.33;;;36.50;93.10;;;;;;5046910;28;20021;-80
2022/08/22 09:03:31;;;;;;;6.45;2.45;;;36.30;92.10;;;;;;5057426;28;20017;-79
2022/08/22 09:06:39;;;;;;;8.00;2.40;;;35.50;92.00;;;;;;5057459;28;20038;-80
2022/08/22 09:09:22;;;;;;;4.32;2.20;;;36.20;92.70;;;;;;5044261;28;20029;-80
2022/08/22 09:12:16;;;;;;;5.15;2.50;;;36.30;91.10;;;;;;5046297;28;20010;-80
2022/08/22 09:14:57;;;;;;;7.43;2.20;;;38.20;90.80;;;;;;5057479;28;20121;-80
2022/08/22 09:18:08;;;;;;;6.13;2.30;;;36.30;90.40;;;;;;5057634;28;20025;-80
2022/08/22 09:20:54;;;;;;;5.32;1.70;;;36.70;87.80;;;;;;5047047;28;20056;-80
2022/08/22 09:23:41;;;;;;;5.75;1.65;;;37.70;85.20;;;;;;5047405;28;20010;-80
2022/08/22 09:26:31;;;;;;;4.43;2.10;;;36.80;84.90;;;;;;5057281;28;20028;-80
2022/08/22 09:29:16;;;;;;;4.57;1.80;;;35.90;86.70;;;;;;5057376;28;20044;-80
2022/08/22 09:31:57;;;;;;;3.33;1.65;;;35.30;86.30;;;;;;5057529;28;20021;-80
2022/08/22 09:34:39;;;;;;;5.63;2.13;;;37.10;82.80;;;;;;5060703;28;20018;-80
2022/08/22 09:37:20;;;;;;;5.75;1.77;;;34.10;84.10;;;;;;5060363;28;20045;-79
2022/08/22 09:39:57;;;;;;;5.22;1.73;;;37.90;82.50;;;;;;5060676;28;20026;-80
2022/08/22 09:43:01;;;;;;;5.93;1.90;;;39.70;83.20;;;;;;5060560;28;20121;-80
2022/08/22 09:45:54;;;;;;;7.07;2.05;;;41.30;75.40;;;;;;5055863;28;20018;-80
2022/08/22 09:49:09;;;;;;;3.97;1.50;;;39.30;73.50;;;;;;5055483;28;20028;-80
2022/08/22 09:51:44;;;;;;;6.82;2.00;;;36.70;70.70;;;;;;5055289;28;20033;-80
2022/08/22 09:54:25;;;;;;;5.78;2.00;;;36.70;75.40;;;;;;5060381;28;20021;-80
2022/08/22 09:56:51;;;;;;;5.97;2.10;;;36.50;78.10;;;;;;5060403;28;20017;-80
2022/08/22 09:59:34;;;;;;;5.72;1.83;;;39.90;76.10;;;;;;5060088;28;20065;-80
2022/08/22 10:02:40;;;;;;;3.83;1.77;;;39.10;72.80;;;;;;5047781;28;20048;-80
2022/08/22 10:05:30;;;;;;;8.15;1.85;;;36.70;73.30;;;;;;5046701;28;20021;-80
2022/08/22 10:08:13;;;;;;;4.15;1.92;;;35.90;73.10;;;;;;5060020;28;20029;-80
2022/08/22 10:10:41;;;;;;;8.48;1.92;;;37.50;72.10;;;;;;5059911;28;20097;-80
2022/08/22 10:13:39;;;;;;;2.38;1.40;;;37.20;73.10;;;;;;5060023;28;20010;-80
2022/08/22 10:16:04;;;;;;;4.13;1.80;;;38.00;70.70;;;;;;5053576;28;20018;-80
2022/08/22 10:18:50;;;;;;;5.10;1.50;;;40.60;68.10;;;;;;5059780;28;20017;-80
2022/08/22 10:21:31;;;;;;;5.50;1.98;;;40.20;65.70;;;;;;5059583;28;20052;-80
2022/08/22 10:24:19;;;;;;;7.90;1.98;;;40.30;66.00;;;;;;5059673;28;20048;-80
2022/08/22 10:26:53;;;;;;;7.18;1.92;;;36.40;64.70;;;;;;5059954;28;20081;-80
2022/08/22 10:29:37;;;;;;;3.70;1.50;;;39.00;65.10;;;;;;5059664;28;20018;-80
2022/08/22 10:32:29;;;;;;;4.68;1.70;;;35.50;62.50;;;;;;5059616;28;20096;-80
2022/08/22 10:35:07;;;;;;;4.60;1.83;;;37.30;63.50;;;;;;5059505;28;20014;-80
2022/08/22 10:37:59;;;;;;;2.83;1.48;;;35.40;62.00;;;;;;5059254;28;20025;-80
2022/08/22 10:40:31;;;;;;;5.15;2.08;;;38.20;63.80;;;;;;5034861;28;20042;-80
2022/08/22 10:43:11;;;;;;;7.20;1.98;;;36.80;63.50;;;;;;5058451;28;20024;-80
2022/08/22 10:45:42;;;;;;;4.53;1.90;;;36.60;66.80;;;;;;5059266;28;20075;-80
2022/08/22 10:48:08;;;;;;;7.00;1.70;;;35.90;65.30;;;;;;5059431;28;20013;-80
2022/08/22 10:50:47;;;;;;;3.88;1.73;;;36.90;66.30;;;;;;5059071;28;20021;-79
2022/08/22 10:53:36;;;;;;;4.45;1.70;;;36.60;63.60;;;;;;5059477;28;20052;-80
2022/08/22 10:56:14;;;;;;;4.57;2.00;;;35.60;63.80;;;;;;5059146;28;20073;-80
2022/08/22 10:58:58;;;;;;;6.03;2.03;;;34.40;63.70;;;;;;5059245;28;20038;-80
2022/08/22 11:01:28;;;;;;;4.63;2.00;;;34.70;64.50;;;;;;5059133;28;20096;-80
2022/08/22 11:04:09;;;;;;;5.00;2.45;;;34.90;63.20;;;;;;5059084;28;20039;-79
2022/08/22 11:06:52;;;;;;;5.00;2.00;;;32.00;63.90;;;;;;5058934;28;20085;-80
2022/08/22 11:09:18;;;;;;;4.78;1.83;;;30.40;67.20;;;;;;5058971;28;20028;-80
2022/08/22 11:12:18;;;;;;;6.72;2.10;;;29.00;68.30;;;;;;5058741;28;20014;-80
2022/08/22 11:15:02;;;;;;;6.22;1.90;;;28.60;73.00;;;;;;5026369;28;20053;-80
2022/08/22 11:17:51;;;;;;;6.07;2.13;;;28.40;74.30;;;;;;5058788;28;20047;-79
2022/08/22 11:20:27;;;;;;;6.38;2.10;;;28.10;77.10;;;;;;5058717;28;20045;-79
2022/08/22 11:23:15;;;;;;;5.32;1.88;;;28.80;79.00;;;;;;5058697;28;20021;-80
2022/08/22 11:26:12;;;;;;;3.85;2.05;;;28.20;79.10;;;;;;5058754;28;20049;-80
2022/08/22 11:29:19;;;;;;;5.15;1.95;;;28.80;80.90;;;;;;5010065;28;20306;-79
2022/08/22 11:31:58;;;;;;;4.40;1.50;;;29.40;84.30;;;;;;5050321;28;20013;-80
2022/08/22 11:34:40;;;;;;;4.78;1.85;;;29.60;81.20;;;;;;5058280;28;20085;-79
2022/08/22 11:37:27;;;;;;;4.75;1.80;;;28.10;80.90;;;;;;5056167;28;20061;-80
2022/08/22 11:40:02;;;;;;;3.45;1.73;;;28.50;81.20;;;;;;5050245;28;20041;-80
2022/08/22 11:42:39;;;;;;;4.50;1.90;;;27.70;81.30;;;;;;5057483;28;20032;-80
2022/08/22 11:45:06;;;;;;;5.30;2.30;;;27.20;83.60;;;;;;5058333;28;20022;-80
2022/08/22 11:47:46;;;;;;;5.30;2.05;;;27.40;85.40;;;;;;5058175;28;20016;-80
2022/08/22 11:50:43;;;;;;;6.82;2.00;;;27.30;85.10;;;;;;5058066;28;20024;-80
2022/08/22 11:53:31;;;;;;;4.03;2.03;;;28.80;86.30;;;;;;5038421;28;20041;-80
2022/08/22 11:56:35;;;;;;;4.38;1.90;;;29.70;84.70;;;;;;5057566;28;20073;-80
2022/08/22 11:59:10;;;;;;;4.47;1.85;;;28.50;83.60;;;;;;5044749;28;20093;-80
2022/08/22 12:01:51;;;;;;;4.40;1.60;;;28.30;85.80;;;;;;5057868;28;20022;-80
2022/08/22 12:04:27;;;;;;;5.22;2.25;;;28.20;86.40;;;;;;5058035;28;20024;-79
2022/08/22 12:06:57;;;;;;;5.60;1.83;;;27.10;84.70;;;;;;5045132;28;20017;-80
2022/08/22 12:09:36;;;;;;;4.85;1.92;;;27.10;86.30;;;;;;5057810;28;20056;-80
2022/08/22 12:12:21;;;;;;;5.67;2.10;;;27.40;85.60;;;;;;5057671;28;20018;-80
2022/08/22 12:15:08;;;;;;;5.13;1.70;;;28.10;87.50;;;;;;5057498;28;20286;-79
2022/08/22 12:18:11;;;;;;;5.07;1.70;;;28.20;88.30;;;;;;5057572;28;20025;-80
2022/08/22 12:20:54;;;;;;;5.82;2.08;;;28.50;87.60;;;;;;5057664;28;20056;-79
2022/08/22 12:23:44;;;;;;;4.20;1.90;;;28.50;87.80;;;;;;5029540;28;20017;-80
2022/08/22 12:26:48;;;;;;;4.85;1.80;;;29.60;89.30;;;;;;5057609;28;20033;-79
2022/08/22 12:29:22;;;;;;;5.65;1.90;;;30.10;87.80;;;;;;5007250;28;20038;-80
2022/08/22 12:32:32;;;;;;;7.57;1.98;;;29.70;86.60;;;;;;5057280;28;20026;-80
2022/08/22 12:35:16;;;;;;;5.78;2.00;;;29.50;87.80;;;;;;5048934;28;20026;-80
2022/08/22 12:38:19;;;;;;;4.30;1.63;;;29.40;85.90;;;;;;5057059;28;20037;-80
2022/08/22 12:40:58;;;;;;;5.55;1.80;;;29.10;83.90;;;;;;5057214;28;20045;-79
2022/08/22 12:43:42;;;;;;;5.25;2.17;;;28.60;86.00;;;;;;5057053;28;20060;-80
2022/08/22 12:46:22;;;;;;;4.78;1.85;;;28.00;86.90;;;;;;5057218;28;20048;-80
2022/08/22 12:49:02;;;;;;;5.47;1.90;;;27.70;88.30;;;;;;5056994;28;20025;-80
2022/08/22 12:51:43;;;;;;;4.72;2.00;;;28.10;89.00;;;;;;5057026;28;20010;-80
2022/08/22 12:54:13;;;;;;;8.00;2.13;;;27.00;88.50;;;;;;5057292;28;20080;-80
2022/08/22 12:56:59;;;;;;;7.68;2.13;;;27.30;87.70;;;;;;5057080;28;20037;-80
2022/08/22 12:59:40;;;;;;;5.53;2.03;;;27.80;88.20;;;;;;5057073;28;20021;-80
2022/08/22 13:02:17;;;;;;;6.85;2.55;;;27.30;89.30;;;;;;5057086;28;20021;-79
2022/08/22 13:04:55;;;;;;;5.93;2.00;;;27.10;90.00;;;;;;5054244;28;20021;-80
2022/08/22 13:07:23;;;;;;;4.95;2.00;;;27.00;89.90;;;;;;5047845;28;20040;-79
2022/08/22 13:09:53;;;;;;;6.15;2.33;;;26.70;90.40;;;;;;5056709;28;20081;-80
2022/08/22 13:12:34;;;;;;;3.35;1.92;;;26.90;89.80;;;;;;5056906;28;20018;-80
2022/08/22 13:15:30;;;;;;;4.75;1.83;;;27.00;90.50;;;;;;5056912;28;20025;-80
2022/08/22 13:17:58;;;;;;;7.90;2.20;;;27.90;91.10;;;;;;5056709;28;20067;-80
2022/08/22 13:20:37;;;;;;;3.35;1.92;;;27.90;90.50;;;;;;5057005;28;20033;-80
2022/08/22 13:23:15;;;;;;;7.03;2.20;;;27.20;90.10;;;;;;5043810;28;20018;-80
2022/08/22 13:26:16;;;;;;;5.50;1.80;;;27.80;90.80;;;;;;5056768;28;20020;-80
2022/08/22 13:28:46;;;;;;;3.78;1.88;;;27.80;90.30;;;;;;5056600;28;20018;-79
2022/08/22 13:31:34;;;;;;;4.47;1.80;;;28.10;89.60;;;;;;5056960;28;20022;-80
2022/08/22 13:34:04;;;;;;;6.72;1.90;;;27.70;89.60;;;;;;5056692;28;20042;-79
2022/08/22 13:36:39;;;;;;;7.18;2.40;;;27.40;90.20;;;;;;5056601;28;20033;-80
2022/08/22 13:39:24;;;;;;;7.72;2.22;;;26.80;90.90;;;;;;5017145;28;20180;-80
2022/08/22 13:41:58;;;;;;;7.05;2.30;;;26.40;91.50;;;;;;5017136;28;20100;-79
2022/08/22 13:44:28;;;;;;;6.40;2.30;;;26.10;91.70;;;;;;5017092;28;20037;-80
2022/08/22 13:47:01;;;;;;;4.43;2.00;;;25.30;93.50;;;;;;5017066;28;20022;-80
2022/08/22 13:49:32;;;;;;;5.07;2.20;;;25.70;92.60;;;;;;5016971;28;20055;-79
2022/08/22 13:52:18;;;;;;;7.85;2.40;;;26.30;92.40;;;;;;5016890;28;20045;-80
2022/08/22 13:54:59;;;;;;;4.10;2.13;;;27.00;92.20;;;;;;5017079;28;20027;-79
2022/08/22 13:57:33;;;;;;;5.22;2.17;;;27.00;92.40;;;;;;5016761;28;20030;-79
2022/08/22 14:00:17;;;;;;;4.00;1.92;;;26.50;92.30;;;;;;5016853;28;20046;-80